createdAt,value
2022-10-25T00:01:15.375Z,12.11
2022-10-25T00:07:31.251Z,12.13
2022-10-25T00:10:37.861Z,12.15
2022-10-25T00:13:42.562Z,12.18
2022-10-25T00:16:47.366Z,12.19
2022-10-25T00:19:53.619Z,12.18
2022-10-25T00:22:59.070Z,12.18
2022-10-25T00:26:04.270Z,12.24
2022-10-25T00:29:10.615Z,12.26
2022-10-25T00:32:15.589Z,12.29
2022-10-25T00:35:21.886Z,12.27
2022-10-25T00:38:26.578Z,12.30
2022-10-25T00:41:33.473Z,12.30
2022-10-25T00:44:56.766Z,12.31
2022-10-25T00:48:05.008Z,12.30
2022-10-25T00:51:11.751Z,12.30
2022-10-25T00:54:20.154Z,12.29
2022-10-25T00:57:29.492Z,12.33
2022-10-25T01:00:34.431Z,12.32
2022-10-25T01:03:40.608Z,12.33
2022-10-25T01:06:50.463Z,12.35
2022-10-25T01:09:55.700Z,12.37
2022-10-25T01:13:02.235Z,12.37
2022-10-25T01:16:15.683Z,12.41
2022-10-25T01:19:45.294Z,12.43
2022-10-25T01:22:59.547Z,12.44
2022-10-25T01:26:44.222Z,12.44
2022-10-25T01:30:09.687Z,12.47
2022-10-25T01:33:23.801Z,12.48
2022-10-25T01:36:38.802Z,12.47
2022-10-25T01:39:49.106Z,12.51
2022-10-25T01:43:01.747Z,12.49
2022-10-25T01:46:13.539Z,12.54
2022-10-25T01:49:25.718Z,12.50
2022-10-25T01:52:30.885Z,12.54
2022-10-25T01:55:40.553Z,12.52
2022-10-25T01:58:53.353Z,12.50
2022-10-25T02:02:05.415Z,12.55
2022-10-25T02:05:19.006Z,12.56
2022-10-25T02:08:36.839Z,12.52
2022-10-25T02:11:41.666Z,12.55
2022-10-25T02:14:55.526Z,12.54
2022-10-25T02:18:02.147Z,12.56
2022-10-25T02:21:08.722Z,12.60
2022-10-25T02:24:18.401Z,12.61
2022-10-25T02:27:24.159Z,12.63
2022-10-25T02:30:29.413Z,12.63
2022-10-25T02:33:34.279Z,12.59
2022-10-25T02:36:40.327Z,12.65
2022-10-25T02:39:46.043Z,12.67
2022-10-25T02:42:50.969Z,12.70
2022-10-25T02:45:55.599Z,12.72
2022-10-25T02:49:00.242Z,12.71
2022-10-25T02:52:06.739Z,12.72
2022-10-25T02:55:12.106Z,12.72
2022-10-25T02:58:17.405Z,12.75
2022-10-25T03:01:22.380Z,12.74
2022-10-25T03:04:27.126Z,12.76
2022-10-25T03:07:33.231Z,12.77
2022-10-25T03:10:38.763Z,12.75
2022-10-25T03:13:43.460Z,12.77
2022-10-25T03:19:58.002Z,12.77
2022-10-25T03:23:04.149Z,12.78
2022-10-25T03:26:09.285Z,12.81
2022-10-25T03:29:16.312Z,12.83
2022-10-25T03:32:20.991Z,12.85
2022-10-25T03:35:26.116Z,12.83
2022-10-25T03:38:32.156Z,12.82
2022-10-25T03:41:37.121Z,12.83
2022-10-25T03:44:42.092Z,12.83
2022-10-25T03:47:47.190Z,12.86
2022-10-25T03:50:52.391Z,12.83
2022-10-25T03:53:58.942Z,12.86
2022-10-25T03:57:04.289Z,12.89
2022-10-25T04:00:11.922Z,12.82
2022-10-25T04:03:17.379Z,12.84
2022-10-25T04:06:22.166Z,12.84
2022-10-25T04:09:28.452Z,12.86
2022-10-25T04:12:33.162Z,12.83
2022-10-25T04:15:39.370Z,12.87
2022-10-25T04:18:44.118Z,12.84
2022-10-25T04:21:48.812Z,12.88
2022-10-25T04:24:54.751Z,12.90
2022-10-25T04:28:00.409Z,12.90
2022-10-25T04:31:05.622Z,12.92
2022-10-25T04:34:12.018Z,12.85
2022-10-25T04:37:16.967Z,12.88
2022-10-25T04:40:24.901Z,12.87
2022-10-25T04:43:30.691Z,12.94
2022-10-25T04:46:35.389Z,12.92
2022-10-25T04:49:40.463Z,12.92
2022-10-25T04:52:45.343Z,12.96
2022-10-25T04:55:58.588Z,12.98
2022-10-25T04:59:03.306Z,12.95
2022-10-25T05:02:08.176Z,13.01
2022-10-25T05:05:12.858Z,12.98
2022-10-25T05:08:18.606Z,12.96
2022-10-25T05:11:26.184Z,12.97
2022-10-25T05:14:30.862Z,13.01
2022-10-25T05:17:35.587Z,13.03
2022-10-25T05:20:40.405Z,13.01
2022-10-25T05:23:45.521Z,12.98
2022-10-25T05:26:51.896Z,12.98
2022-10-25T05:29:56.565Z,13.01
2022-10-25T05:33:04.166Z,13.02
2022-10-25T05:36:10.854Z,13.01
2022-10-25T05:39:15.614Z,13.03
2022-10-25T05:42:21.774Z,13.03
2022-10-25T05:45:26.855Z,13.03
2022-10-25T05:48:32.560Z,13.00
2022-10-25T05:51:37.651Z,13.05
2022-10-25T05:54:43.405Z,13.01
2022-10-25T05:57:53.283Z,13.05
2022-10-25T06:01:01.907Z,13.04
2022-10-25T06:04:08.031Z,13.01
2022-10-25T06:07:12.934Z,12.99
2022-10-25T06:10:18.286Z,13.01
2022-10-25T06:13:24.426Z,13.04
2022-10-25T06:16:29.595Z,13.08
2022-10-25T06:19:34.219Z,12.97
2022-10-25T06:22:39.135Z,13.05
2022-10-25T06:25:43.847Z,13.02
2022-10-25T06:28:53.171Z,13.10
2022-10-25T06:31:57.831Z,13.09
2022-10-25T06:35:02.866Z,13.12
2022-10-25T06:38:07.811Z,13.10
2022-10-25T06:41:17.916Z,13.09
2022-10-25T06:44:23.999Z,13.14
2022-10-25T06:47:28.923Z,13.15
2022-10-25T06:50:33.692Z,13.12
2022-10-25T06:53:40.075Z,13.17
2022-10-25T06:56:44.739Z,13.14
2022-10-25T06:59:50.815Z,13.21
2022-10-25T07:02:56.606Z,13.19
2022-10-25T07:06:01.763Z,13.19
2022-10-25T07:09:09.319Z,13.22
2022-10-25T07:12:14.619Z,13.26
2022-10-25T07:15:21.717Z,13.25
2022-10-25T07:18:26.451Z,13.32
2022-10-25T07:21:33.543Z,13.32
2022-10-25T07:24:38.170Z,13.29
2022-10-25T07:27:42.854Z,13.31
2022-10-25T07:30:49.404Z,13.36
2022-10-25T07:33:55.763Z,13.38
2022-10-25T07:37:01.022Z,13.43
2022-10-25T07:40:07.480Z,13.40
2022-10-25T07:43:12.819Z,13.39
2022-10-25T07:46:19.295Z,13.41
2022-10-25T07:49:24.239Z,13.49
2022-10-25T07:52:29.037Z,13.46
2022-10-25T07:55:33.667Z,13.46
2022-10-25T07:58:38.315Z,13.54
2022-10-25T08:01:44.410Z,13.52
2022-10-25T08:04:51.085Z,13.51
2022-10-25T08:07:58.514Z,13.60
2022-10-25T08:11:08.116Z,13.61
2022-10-25T08:14:13.144Z,13.65
2022-10-25T08:17:19.328Z,13.69
2022-10-25T08:20:43.082Z,13.70
2022-10-25T08:23:48.663Z,13.75
2022-10-25T08:26:53.361Z,13.80
2022-10-25T08:29:58.052Z,13.74
2022-10-25T08:33:06.448Z,13.72
2022-10-25T08:36:14.331Z,13.88
2022-10-25T08:39:19.088Z,13.93
2022-10-25T08:42:30.163Z,13.92
2022-10-25T08:45:39.132Z,13.99
2022-10-25T08:48:49.679Z,14.04
2022-10-25T08:51:55.314Z,14.12
2022-10-25T08:55:05.537Z,14.19
2022-10-25T08:58:19.928Z,14.30
2022-10-25T09:01:38.173Z,14.37
2022-10-25T09:04:44.619Z,14.31
2022-10-25T09:08:05.294Z,14.29
2022-10-25T09:11:21.299Z,14.31
2022-10-25T09:14:33.743Z,14.27
2022-10-25T09:17:48.790Z,14.28
2022-10-25T09:20:55.310Z,14.34
2022-10-25T09:24:03.046Z,14.25
2022-10-25T09:27:09.760Z,14.38
2022-10-25T09:30:15.099Z,14.45
2022-10-25T09:33:23.044Z,14.47
2022-10-25T09:36:32.819Z,14.44
2022-10-25T09:39:41.782Z,14.46
2022-10-25T09:42:52.580Z,14.40
2022-10-25T09:46:00.548Z,14.45
2022-10-25T09:49:15.562Z,14.46
2022-10-25T09:52:29.093Z,14.38
2022-10-25T09:55:40.093Z,14.42
2022-10-25T09:58:47.192Z,14.46
2022-10-25T10:01:52.203Z,14.47
2022-10-25T10:04:56.989Z,14.40
2022-10-25T10:08:03.005Z,14.40
2022-10-25T10:11:08.371Z,14.28
2022-10-25T10:14:19.622Z,14.33
2022-10-25T10:17:25.056Z,14.27
2022-10-25T10:20:30.073Z,14.35
2022-10-25T10:23:45.491Z,14.40
2022-10-25T10:26:55.441Z,14.39
2022-10-25T10:30:02.414Z,14.31
2022-10-25T10:33:09.604Z,14.22
2022-10-25T10:36:27.614Z,14.23
2022-10-25T10:39:33.630Z,14.33
2022-10-25T10:42:41.313Z,14.34
2022-10-25T10:45:51.347Z,14.29
2022-10-25T10:48:57.303Z,14.31
2022-10-25T10:52:02.967Z,14.32
2022-10-25T10:55:19.224Z,14.39
2022-10-25T10:58:26.823Z,14.43
2022-10-25T11:01:34.081Z,14.42
2022-10-25T11:04:49.654Z,14.42
2022-10-25T11:07:57.272Z,14.53
2022-10-25T11:11:17.829Z,14.52
2022-10-25T11:14:22.599Z,14.54
2022-10-25T11:17:30.855Z,14.55
2022-10-25T11:20:48.721Z,14.52
2022-10-25T11:24:07.343Z,14.53
2022-10-25T11:27:20.604Z,14.57
2022-10-25T11:30:26.631Z,14.59
2022-10-25T11:33:44.478Z,14.65
2022-10-25T11:36:59.974Z,14.58
2022-10-25T11:40:14.760Z,14.64
2022-10-25T11:43:35.502Z,14.75
2022-10-25T11:46:47.604Z,14.81
2022-10-25T11:50:03.756Z,14.76
2022-10-25T11:53:30.910Z,14.87
2022-10-25T11:56:42.558Z,14.88
2022-10-25T12:00:00.829Z,14.84
2022-10-25T12:03:26.775Z,14.85
2022-10-25T12:06:35.511Z,14.75
2022-10-25T12:09:50.861Z,14.73
2022-10-25T12:12:58.267Z,14.72
2022-10-25T12:16:07.502Z,14.73
2022-10-25T12:19:19.479Z,14.75
2022-10-25T12:22:27.610Z,14.62
2022-10-25T12:25:36.509Z,14.67
2022-10-25T12:28:46.823Z,14.63
2022-10-25T12:31:57.944Z,14.54
2022-10-25T12:35:07.007Z,14.52
2022-10-25T12:38:18.950Z,14.55
2022-10-25T12:41:27.190Z,14.58
2022-10-25T12:44:58.753Z,14.47
2022-10-25T12:48:16.822Z,14.51
2022-10-25T12:51:38.025Z,14.58
2022-10-25T12:55:16.882Z,14.45
2022-10-25T12:58:35.244Z,14.51
2022-10-25T13:02:03.926Z,14.54
2022-10-25T13:05:31.918Z,14.51
2022-10-25T13:08:40.091Z,14.51
2022-10-25T13:11:51.601Z,14.44
2022-10-25T13:14:59.357Z,14.39
2022-10-25T13:18:07.010Z,14.45
2022-10-25T13:21:16.313Z,14.49
2022-10-25T13:24:39.959Z,14.48
2022-10-25T13:28:21.330Z,14.34
2022-10-25T13:31:49.605Z,14.31
2022-10-25T13:34:55.770Z,14.24
2022-10-25T13:38:07.995Z,14.27
2022-10-25T13:41:16.298Z,14.30
2022-10-25T13:44:22.270Z,14.27
2022-10-25T13:47:36.703Z,14.12
2022-10-25T13:50:45.646Z,14.01
2022-10-25T13:53:53.331Z,14.14
2022-10-25T13:56:58.179Z,14.16
2022-10-25T14:00:03.891Z,14.15
2022-10-25T14:03:35.919Z,14.07
2022-10-25T14:06:42.477Z,14.15
2022-10-25T14:09:53.246Z,14.15
2022-10-25T14:13:16.147Z,14.08
2022-10-25T14:16:28.213Z,14.09
2022-10-25T14:19:38.386Z,14.07
2022-10-25T14:22:44.820Z,14.12
2022-10-25T14:25:57.678Z,14.02
2022-10-25T14:29:15.268Z,14.06
2022-10-25T14:32:22.094Z,14.11
2022-10-25T14:35:32.172Z,14.06
2022-10-25T14:38:51.227Z,14.00
2022-10-25T14:41:59.800Z,14.08
2022-10-25T14:45:04.842Z,14.10
2022-10-25T14:48:16.230Z,14.07
2022-10-25T14:51:23.062Z,14.04
2022-10-25T14:54:31.170Z,14.00
2022-10-25T14:57:38.027Z,14.03
2022-10-25T15:00:54.693Z,14.04
2022-10-25T15:04:01.343Z,14.06
2022-10-25T15:07:07.385Z,14.03
2022-10-25T15:10:40.740Z,14.04
2022-10-25T15:13:49.382Z,14.03
2022-10-25T15:17:03.406Z,14.02
2022-10-25T15:20:31.085Z,13.92
2022-10-25T15:23:36.530Z,13.96
2022-10-25T15:26:53.845Z,13.98
2022-10-25T15:30:00.223Z,13.99
2022-10-25T15:33:07.099Z,13.94
2022-10-25T15:36:23.216Z,13.96
2022-10-25T15:39:31.122Z,13.96
2022-10-25T15:42:35.865Z,13.91
2022-10-25T15:45:42.574Z,13.90
2022-10-25T15:48:48.723Z,13.96
2022-10-25T15:51:55.795Z,13.89
2022-10-25T15:55:00.498Z,13.91
2022-10-25T15:58:09.708Z,13.83
2022-10-25T16:01:17.320Z,13.89
2022-10-25T16:04:22.482Z,13.87
2022-10-25T16:07:27.220Z,13.83
2022-10-25T16:10:33.141Z,13.77
2022-10-25T16:13:39.920Z,13.78
2022-10-25T16:16:46.251Z,13.83
2022-10-25T16:19:50.977Z,13.78
2022-10-25T16:22:56.255Z,13.71
2022-10-25T16:26:01.345Z,13.74
2022-10-25T16:29:06.432Z,13.74
2022-10-25T16:32:14.746Z,13.79
2022-10-25T16:35:24.142Z,13.71
2022-10-25T16:38:29.444Z,13.74
2022-10-25T16:41:34.213Z,13.72
2022-10-25T16:44:39.109Z,13.77
2022-10-25T16:47:45.180Z,13.72
2022-10-25T16:50:49.903Z,13.73
2022-10-25T16:53:54.900Z,13.69
2022-10-25T16:56:59.522Z,13.70
2022-10-25T17:00:05.278Z,13.66
2022-10-25T17:03:12.663Z,13.72
2022-10-25T17:06:39.651Z,13.72
2022-10-25T17:09:43.111Z,13.67
2022-10-25T17:12:50.830Z,13.63
2022-10-25T17:15:56.362Z,13.67
2022-10-25T17:19:04.204Z,13.71
2022-10-25T17:22:09.459Z,13.70
2022-10-25T17:25:14.231Z,13.77
2022-10-25T17:28:18.922Z,13.78
2022-10-25T17:31:23.858Z,13.74
2022-10-25T17:34:31.834Z,13.70
2022-10-25T17:37:36.605Z,13.72
2022-10-25T17:40:42.074Z,13.71
2022-10-25T17:43:48.584Z,13.73
2022-10-25T17:46:55.534Z,13.70
2022-10-25T17:50:03.472Z,13.68
2022-10-25T17:53:10.678Z,13.67
2022-10-25T17:56:17.481Z,13.73
2022-10-25T17:59:22.135Z,13.69
2022-10-25T18:02:26.989Z,13.71
2022-10-25T18:05:33.285Z,13.74
2022-10-25T18:08:38.611Z,13.75
2022-10-25T18:11:44.627Z,13.74
2022-10-25T18:14:53.338Z,13.68
2022-10-25T18:18:00.420Z,13.69
2022-10-25T18:21:08.006Z,13.73
2022-10-25T18:24:15.047Z,13.70
2022-10-25T18:27:20.883Z,13.72
2022-10-25T18:30:26.441Z,13.77
2022-10-25T18:33:32.343Z,13.78
2022-10-25T18:36:38.515Z,13.73
2022-10-25T18:39:43.176Z,13.66
2022-10-25T18:42:48.242Z,13.70
2022-10-25T18:45:57.782Z,13.78
2022-10-25T18:49:02.506Z,13.72
2022-10-25T18:52:09.214Z,13.69
2022-10-25T18:55:15.255Z,13.59
2022-10-25T18:58:20.554Z,13.68
2022-10-25T19:01:28.061Z,13.72
2022-10-25T19:04:32.802Z,13.73
2022-10-25T19:07:38.842Z,13.69
2022-10-25T19:10:43.762Z,13.65
2022-10-25T19:13:51.409Z,13.75
2022-10-25T19:16:56.208Z,13.67
2022-10-25T19:20:00.932Z,13.55
2022-10-25T19:23:07.864Z,13.71
2022-10-25T19:26:15.339Z,13.75
2022-10-25T19:29:19.959Z,13.70
2022-10-25T19:32:24.821Z,13.69
2022-10-25T19:35:29.582Z,13.75
2022-10-25T19:38:36.704Z,13.67
2022-10-25T19:41:41.389Z,13.71
2022-10-25T19:44:46.342Z,13.67
2022-10-25T19:47:52.659Z,13.65
2022-10-25T19:50:57.621Z,13.61
2022-10-25T19:54:03.720Z,13.69
2022-10-25T19:57:08.529Z,13.64
2022-10-25T20:00:15.654Z,13.62
2022-10-25T20:03:20.282Z,13.62
2022-10-25T20:06:27.873Z,13.62
2022-10-25T20:09:33.940Z,13.51
2022-10-25T20:12:38.922Z,13.46
2022-10-25T20:15:51.518Z,13.47
2022-10-25T20:18:56.827Z,13.49
2022-10-25T20:22:01.655Z,13.34
2022-10-25T20:25:09.111Z,13.28
2022-10-25T20:28:15.310Z,13.23
2022-10-25T20:31:20.434Z,13.33
2022-10-25T20:34:27.450Z,13.19
2022-10-25T20:37:32.394Z,13.26
2022-10-25T20:40:38.649Z,13.18
2022-10-25T20:43:47.445Z,13.20
2022-10-25T20:46:52.160Z,13.22
2022-10-25T20:49:57.150Z,13.10
2022-10-25T20:53:10.588Z,13.13
2022-10-25T20:56:17.522Z,13.27
2022-10-25T20:59:22.173Z,13.21
2022-10-25T21:02:27.357Z,13.26
2022-10-25T21:05:32.333Z,13.26
2022-10-25T21:08:38.830Z,13.19
2022-10-25T21:11:44.995Z,13.15
2022-10-25T21:14:50.266Z,13.13
2022-10-25T21:17:54.842Z,12.97
2022-10-25T21:21:02.866Z,13.11
2022-10-25T21:24:09.597Z,13.15
2022-10-25T21:27:16.133Z,13.19
2022-10-25T21:30:20.854Z,13.13
2022-10-25T21:33:25.751Z,13.07
2022-10-25T21:36:30.406Z,13.09
2022-10-25T21:39:35.237Z,13.01
2022-10-25T21:42:41.435Z,12.98
2022-10-25T21:45:46.132Z,12.98
2022-10-25T21:48:51.709Z,12.99
2022-10-25T21:51:56.466Z,12.94
2022-10-25T21:55:01.120Z,12.97
2022-10-25T21:58:07.450Z,12.93
2022-10-25T22:01:14.914Z,12.92
2022-10-25T22:04:19.729Z,12.86
2022-10-25T22:07:24.574Z,12.91
2022-10-25T22:10:29.282Z,12.92
2022-10-25T22:13:35.726Z,12.88
2022-10-25T22:16:41.290Z,12.80
2022-10-25T22:19:46.122Z,12.89
2022-10-25T22:22:51.149Z,12.86
2022-10-25T22:25:56.286Z,12.89
2022-10-25T22:29:02.682Z,12.89
2022-10-25T22:32:07.422Z,12.79
2022-10-25T22:35:13.353Z,12.91
2022-10-25T22:38:18.621Z,12.80
2022-10-25T22:41:25.838Z,12.85
2022-10-25T22:44:31.971Z,12.86
2022-10-25T22:47:36.680Z,12.81
2022-10-25T22:50:42.807Z,12.84
2022-10-25T22:53:47.600Z,12.79
2022-10-25T22:56:52.237Z,12.86
2022-10-25T22:59:58.462Z,12.80
2022-10-25T23:03:03.266Z,12.76
2022-10-25T23:06:11.358Z,12.81
2022-10-25T23:09:16.068Z,12.85
2022-10-25T23:12:20.842Z,12.84
2022-10-25T23:15:26.937Z,12.78
2022-10-25T23:18:32.112Z,12.75
2022-10-25T23:21:36.983Z,12.76
2022-10-25T23:24:42.099Z,12.82
2022-10-25T23:27:47.850Z,12.79
2022-10-25T23:30:54.569Z,12.80
2022-10-25T23:34:00.768Z,12.74
2022-10-25T23:37:05.536Z,12.51
2022-10-25T23:40:13.433Z,12.59
2022-10-25T23:43:18.576Z,12.70
2022-10-25T23:46:24.742Z,12.70
2022-10-25T23:49:29.454Z,12.72
2022-10-25T23:52:34.406Z,12.68
2022-10-25T23:55:40.183Z,12.67
2022-10-25T23:58:44.832Z,12.68
